createdAt,value
2022-10-14T00:04:40.469Z,12.70
2022-10-14T00:09:42.901Z,15.95
2022-10-14T00:14:45.077Z,13.30
2022-10-14T00:19:46.668Z,13.00
2022-10-14T00:24:48.717Z,15.57
2022-10-14T00:29:50.486Z,15.05
2022-10-14T00:34:52.316Z,16.52
2022-10-14T00:39:57.006Z,14.23
2022-10-14T00:45:10.887Z,14.40
2022-10-14T00:50:16.055Z,14.82
2022-10-14T00:55:19.612Z,17.10
2022-10-14T01:00:22.808Z,13.93
2022-10-14T01:05:32.003Z,14.48
2022-10-14T01:10:47.322Z,14.10
2022-10-14T01:16:04.922Z,13.43
2022-10-14T01:21:24.750Z,10.60
2022-10-14T01:26:37.883Z,14.82
2022-10-14T01:32:03.962Z,13.48
2022-10-14T01:37:15.504Z,13.38
2022-10-14T01:42:23.310Z,12.85
2022-10-14T01:47:29.461Z,13.48
2022-10-14T01:52:47.270Z,14.15
2022-10-14T01:57:52.219Z,13.50
2022-10-14T02:02:53.835Z,12.90
2022-10-14T02:08:27.450Z,12.00
2022-10-14T02:13:55.341Z,12.43
2022-10-14T02:19:23.349Z,11.15
2022-10-14T02:24:29.526Z,12.00
2022-10-14T02:29:33.539Z,12.77
2022-10-14T02:34:37.655Z,12.57
2022-10-14T02:39:54.751Z,13.45
2022-10-14T02:45:01.229Z,19.58
2022-10-14T02:50:03.715Z,20.45
2022-10-14T02:55:06.910Z,15.55
2022-10-14T03:00:09.479Z,16.92
2022-10-14T03:05:11.227Z,22.85
2022-10-14T03:10:14.343Z,18.08
2022-10-14T03:15:16.729Z,18.52
2022-10-14T03:20:18.585Z,21.23
2022-10-14T03:25:25.882Z,22.42
2022-10-14T03:30:35.415Z,20.35
2022-10-14T03:35:44.810Z,20.55
2022-10-14T03:40:49.895Z,19.73
2022-10-14T03:45:52.491Z,15.60
2022-10-14T03:50:56.783Z,14.70
2022-10-14T03:55:59.577Z,16.27
2022-10-14T04:01:01.790Z,17.58
2022-10-14T04:06:31.547Z,17.23
2022-10-14T04:11:57.643Z,16.48
2022-10-14T04:17:33.387Z,17.20
2022-10-14T04:23:01.059Z,16.40
2022-10-14T04:28:22.590Z,15.02
2022-10-14T04:33:53.500Z,14.00
2022-10-14T04:39:23.281Z,16.27
2022-10-14T04:44:25.747Z,15.90
2022-10-14T04:49:29.614Z,16.35
2022-10-14T04:54:40.679Z,16.95
2022-10-14T04:59:42.543Z,18.08
2022-10-14T05:04:50.252Z,18.27
2022-10-14T05:09:56.325Z,19.10
2022-10-14T05:15:09.534Z,20.13
2022-10-14T05:20:22.595Z,17.27
2022-10-14T05:25:28.342Z,15.90
2022-10-14T05:30:34.709Z,17.90
2022-10-14T05:35:58.173Z,16.35
2022-10-14T05:41:01.818Z,16.98
2022-10-14T05:46:03.899Z,16.70
2022-10-14T05:51:11.079Z,19.30
2022-10-14T05:56:13.694Z,17.10
2022-10-14T06:01:15.783Z,18.40
2022-10-14T06:06:18.884Z,18.05
2022-10-14T06:11:20.776Z,18.67
2022-10-14T06:16:22.528Z,21.35
2022-10-14T06:21:24.174Z,20.90
2022-10-14T06:26:25.878Z,17.98
2022-10-14T06:31:31.994Z,17.77
2022-10-14T06:36:35.236Z,16.80
2022-10-14T06:41:37.055Z,21.15
2022-10-14T06:46:38.640Z,20.63
2022-10-14T06:51:40.604Z,19.77
2022-10-14T06:56:42.364Z,17.88
2022-10-14T07:01:44.109Z,21.13
2022-10-14T07:06:45.730Z,20.35
2022-10-14T07:11:47.478Z,22.02
2022-10-14T07:16:49.171Z,17.65
2022-10-14T07:21:50.735Z,18.48
2022-10-14T07:26:52.642Z,19.80
2022-10-14T07:31:55.005Z,23.95
2022-10-14T07:36:56.664Z,17.73
2022-10-14T07:41:58.246Z,21.85
2022-10-14T07:47:01.733Z,21.35
2022-10-14T07:52:03.442Z,26.02
2022-10-14T07:57:05.059Z,26.58
2022-10-14T08:02:06.677Z,20.85
2022-10-14T08:07:08.525Z,25.45
2022-10-14T08:12:10.416Z,26.23
2022-10-14T08:17:12.190Z,28.67
2022-10-14T08:22:13.805Z,24.35
2022-10-14T08:27:16.359Z,28.02
2022-10-14T08:32:17.992Z,25.70
2022-10-14T08:37:19.770Z,26.65
2022-10-14T08:42:34.997Z,24.17
2022-10-14T08:47:43.034Z,24.50
2022-10-14T08:52:55.704Z,27.15
2022-10-14T08:58:27.284Z,24.20
2022-10-14T09:03:33.784Z,23.00
2022-10-14T09:08:43.185Z,22.95
2022-10-14T09:13:49.201Z,25.45
2022-10-14T09:18:55.131Z,22.98
2022-10-14T09:24:01.433Z,24.38
2022-10-14T09:29:03.151Z,22.20
2022-10-14T09:34:07.996Z,24.02
2022-10-14T09:39:12.219Z,20.10
2022-10-14T09:44:22.854Z,18.95
2022-10-14T09:49:46.515Z,23.88
2022-10-14T09:54:55.393Z,20.98
2022-10-14T10:00:03.723Z,19.50
2022-10-14T10:05:13.703Z,17.60
2022-10-14T10:10:21.122Z,18.17
2022-10-14T10:15:22.984Z,22.50
2022-10-14T10:20:32.105Z,19.77
2022-10-14T10:25:33.948Z,19.45
2022-10-14T10:30:43.466Z,17.23
2022-10-14T10:36:05.378Z,14.07
2022-10-14T10:41:37.198Z,15.43
2022-10-14T10:47:06.311Z,14.48
2022-10-14T10:52:30.624Z,15.20
2022-10-14T10:57:41.125Z,15.05
2022-10-14T11:02:55.049Z,14.23
2022-10-14T11:08:57.329Z,14.70
2022-10-14T11:14:12.955Z,14.18
2022-10-14T11:19:29.927Z,13.93
2022-10-14T11:24:54.537Z,14.10
2022-10-14T11:29:56.774Z,13.43
2022-10-14T11:35:18.383Z,10.73
2022-10-14T11:40:27.139Z,12.02
2022-10-14T11:45:47.026Z,12.40
2022-10-14T11:50:56.564Z,8.98
2022-10-14T11:56:09.610Z,8.43
2022-10-14T12:01:14.335Z,8.15
2022-10-14T12:06:21.662Z,7.57
2022-10-14T12:11:53.253Z,6.50
2022-10-14T12:16:55.938Z,7.60
2022-10-14T12:22:16.296Z,6.03
2022-10-14T12:27:19.601Z,6.78
2022-10-14T12:32:30.675Z,5.90
2022-10-14T12:37:43.143Z,6.35
2022-10-14T12:42:44.755Z,6.78
2022-10-14T12:48:03.156Z,6.05
2022-10-14T12:53:24.929Z,5.45
2022-10-14T12:58:37.078Z,6.25
2022-10-14T13:03:46.241Z,5.63
2022-10-14T13:09:12.940Z,4.53
2022-10-14T13:14:25.610Z,5.45
2022-10-14T13:19:33.428Z,4.70
2022-10-14T13:24:44.033Z,4.85
2022-10-14T13:30:08.700Z,4.63
2022-10-14T13:35:18.614Z,6.85
2022-10-14T13:40:35.743Z,4.18
2022-10-14T13:45:45.434Z,3.83
2022-10-14T13:50:50.799Z,3.88
2022-10-14T13:55:54.524Z,3.78
2022-10-14T14:00:59.573Z,4.63
2022-10-14T14:06:01.964Z,4.10
2022-10-14T14:11:22.039Z,4.28
2022-10-14T14:16:36.928Z,3.83
2022-10-14T14:21:38.530Z,4.35
2022-10-14T14:26:40.164Z,4.65
2022-10-14T14:37:43.512Z,4.30
2022-10-14T14:42:35.944Z,4.97
2022-10-14T14:47:37.834Z,3.67
2022-10-14T14:52:41.377Z,6.03
2022-10-14T14:57:45.055Z,3.33
2022-10-14T15:02:49.760Z,5.63
2022-10-14T15:07:51.797Z,3.85
2022-10-14T15:12:56.414Z,3.83
2022-10-14T15:18:22.099Z,5.38
2022-10-14T15:23:40.310Z,3.63
2022-10-14T15:28:41.930Z,3.58
2022-10-14T15:33:43.655Z,4.85
2022-10-14T15:38:45.446Z,3.58
2022-10-14T15:43:48.212Z,3.13
2022-10-14T15:48:52.473Z,4.85
2022-10-14T15:53:54.302Z,2.83
2022-10-14T15:58:55.939Z,3.63
2022-10-14T16:03:58.007Z,5.90
2022-10-14T16:08:59.692Z,6.15
2022-10-14T16:14:01.277Z,3.38
2022-10-14T16:19:03.625Z,6.40
2022-10-14T16:24:06.495Z,4.85
2022-10-14T16:29:08.219Z,4.00
2022-10-14T16:34:10.207Z,6.45
2022-10-14T16:39:13.150Z,3.50
2022-10-14T16:44:27.675Z,3.42
2022-10-14T16:49:29.425Z,3.28
2022-10-14T16:54:31.250Z,4.35
2022-10-14T16:59:34.909Z,4.82
2022-10-14T17:04:37.563Z,3.33
2022-10-14T17:09:39.801Z,4.07
2022-10-14T17:14:41.538Z,4.38
2022-10-14T17:19:43.495Z,2.90
2022-10-14T17:24:45.400Z,2.20
2022-10-14T17:29:47.878Z,4.70
2022-10-14T17:34:53.314Z,1.92
2022-10-14T17:39:55.434Z,3.80
2022-10-14T17:44:57.200Z,2.13
2022-10-14T17:49:59.385Z,2.58
2022-10-14T17:55:01.644Z,3.92
2022-10-14T18:00:04.376Z,3.45
2022-10-14T18:05:13.768Z,2.00
2022-10-14T18:10:15.608Z,10.85
2022-10-14T18:15:17.469Z,12.75
2022-10-14T18:20:19.297Z,13.00
2022-10-14T18:25:21.325Z,5.03
2022-10-14T18:30:22.919Z,5.18
2022-10-14T18:35:24.583Z,2.47
2022-10-14T18:40:26.381Z,3.10
2022-10-14T18:45:27.993Z,2.45
2022-10-14T18:50:29.650Z,3.92
2022-10-14T18:55:31.347Z,3.42
2022-10-14T19:00:33.576Z,2.67
2022-10-14T19:05:36.293Z,2.90
2022-10-14T19:10:38.366Z,3.33
2022-10-14T19:15:51.387Z,5.28
2022-10-14T19:20:56.416Z,7.00
2022-10-14T19:25:59.320Z,3.10
2022-10-14T19:31:09.193Z,3.38
2022-10-14T19:36:16.639Z,2.80
2022-10-14T19:41:18.936Z,2.92
2022-10-14T19:46:27.551Z,2.80
2022-10-14T19:51:29.254Z,3.40
2022-10-14T19:56:31.266Z,2.85
2022-10-14T20:01:33.220Z,2.50
2022-10-14T20:06:36.755Z,4.93
2022-10-14T20:11:38.419Z,2.67
2022-10-14T20:16:40.201Z,3.33
2022-10-14T20:21:41.940Z,2.30
2022-10-14T20:26:43.742Z,2.78
2022-10-14T20:31:46.811Z,4.18
2022-10-14T20:36:48.714Z,2.80
2022-10-14T20:41:50.728Z,4.53
2022-10-14T20:46:52.595Z,2.63
2022-10-14T20:51:54.238Z,2.53
2022-10-14T20:56:55.987Z,3.15
2022-10-14T21:01:57.577Z,3.38
2022-10-14T21:06:59.174Z,4.70
2022-10-14T21:12:00.820Z,7.60
2022-10-14T21:17:02.846Z,3.47
2022-10-14T21:22:04.437Z,4.47
2022-10-14T21:27:06.231Z,4.20
2022-10-14T21:32:08.553Z,3.15
2022-10-14T21:37:10.152Z,2.78
2022-10-14T21:42:11.814Z,3.28
2022-10-14T21:47:14.413Z,2.75
2022-10-14T21:52:17.229Z,5.45
2022-10-14T21:57:18.934Z,3.33
2022-10-14T22:02:22.643Z,2.45
2022-10-14T22:07:24.635Z,4.63
2022-10-14T22:12:28.707Z,2.67
2022-10-14T22:17:30.728Z,2.90
2022-10-14T22:22:32.366Z,2.25
2022-10-14T22:27:33.957Z,2.30
2022-10-14T22:32:35.614Z,2.50
2022-10-14T22:37:37.216Z,3.70
2022-10-14T22:42:42.075Z,2.33
2022-10-14T22:47:44.186Z,2.90
2022-10-14T22:52:45.713Z,3.45
2022-10-14T22:57:47.618Z,2.70
2022-10-14T23:02:49.259Z,2.20
2022-10-14T23:07:50.901Z,2.28
2022-10-14T23:12:52.557Z,2.80
2022-10-14T23:17:54.516Z,2.17
2022-10-14T23:22:56.087Z,2.80
2022-10-14T23:27:57.680Z,2.65
2022-10-14T23:32:59.275Z,2.72
2022-10-14T23:38:00.921Z,2.40
2022-10-14T23:43:02.472Z,2.95
2022-10-14T23:48:04.364Z,2.53
2022-10-14T23:53:05.929Z,1.88
2022-10-14T23:58:07.627Z,4.85
